Time;durP1;ratioP1;P1;durP2;ratioP2;P2;SDS_P1;SDS_P2;PMS_P1;PMS_P2;Temp;Humidity;BMP_temperature;BMP_pressure;BME280_temperature;BME280_humidity;BME280_pressure;Samples;Min_cycle;Max_cycle;Signal;HPM_P1;HPM_P2
2022/02/14 00:01:26;;;;;;;46.43;43.13;;;;;;;10.12;100.00;99127.13;2015807;71;32833;-74
2022/02/14 00:07:10;;;;;;;50.03;46.30;;;;;;;10.06;100.00;99133.40;2003734;71;32761;-74
2022/02/14 00:12:54;;;;;;;51.00;47.40;;;;;;;10.06;100.00;99141.16;2007408;71;33312;-74
2022/02/14 00:18:38;;;;;;;50.03;46.33;;;;;;;10.01;100.00;99150.22;2009213;71;32851;-73
2022/02/14 00:24:23;;;;;;;48.40;44.90;;;;;;;9.99;100.00;99163.02;1990810;71;32776;-73
2022/02/14 00:30:09;;;;;;;49.00;45.40;;;;;;;9.85;100.00;99152.60;2003740;71;32850;-73
2022/02/14 00:35:53;;;;;;;50.27;46.77;;;;;;;9.80;100.00;99154.70;2005506;71;32923;-74
2022/02/14 00:41:38;;;;;;;50.70;47.10;;;;;;;9.80;100.00;99168.56;2012866;71;33305;-72
2022/02/14 00:47:22;;;;;;;52.90;49.23;;;;;;;9.78;100.00;99171.67;2013932;71;32953;-73
2022/02/14 00:53:07;;;;;;;53.47;49.60;;;;;;;9.72;100.00;99185.98;2010359;71;32848;-74
2022/02/14 00:58:51;;;;;;;52.50;48.80;;;;;;;9.68;100.00;99203.01;2012216;71;33194;-73
2022/02/14 01:04:35;;;;;;;51.47;47.77;;;;;;;9.58;100.00;99214.63;1963185;72;33098;-72
2022/02/14 01:10:20;;;;;;;53.03;49.00;;;;;;;9.52;100.00;99210.38;1994076;71;32823;-73
2022/02/14 01:16:04;;;;;;;52.90;48.93;;;;;;;9.46;100.00;99214.40;2016138;71;33277;-74
2022/02/14 01:21:49;;;;;;;53.67;49.67;;;;;;;9.43;100.00;99220.59;1994478;71;32856;-74
2022/02/14 01:27:33;;;;;;;57.63;53.27;;;;;;;9.42;100.00;99233.36;1990830;71;32986;-74
2022/02/14 01:33:18;;;;;;;57.43;53.43;;;;;;;9.30;100.00;99234.52;2016061;71;32821;-74
2022/02/14 01:39:03;;;;;;;57.73;53.43;;;;;;;9.34;100.00;99234.13;2010346;71;33385;-74
2022/02/14 01:44:49;;;;;;;58.33;53.93;;;;;;;9.24;100.00;99229.66;2005236;71;32948;-73
2022/02/14 01:50:35;;;;;;;59.93;55.60;;;;;;;9.28;100.00;99236.23;2005130;70;32938;-73
2022/02/14 01:56:19;;;;;;;60.67;56.20;;;;;;;9.21;100.00;99228.09;2015988;71;32788;-73
2022/02/14 02:02:06;;;;;;;59.77;55.37;;;;;;;9.12;100.00;99209.47;2009229;71;33275;-74
2022/02/14 02:07:51;;;;;;;59.90;55.60;;;;;;;9.11;100.00;99216.14;1994611;71;33303;-74
2022/02/14 02:13:36;;;;;;;61.10;56.60;;;;;;;9.12;100.00;99244.09;2003485;71;33254;-74
2022/02/14 02:19:21;;;;;;;59.87;55.47;;;;;;;9.04;100.00;99257.31;2003696;71;32840;-74
2022/02/14 02:25:08;;;;;;;61.20;56.80;;;;;;;9.00;100.00;99258.25;2006642;71;32919;-74
2022/02/14 02:30:53;;;;;;;61.23;56.93;;;;;;;9.03;100.00;99259.82;2012544;71;32902;-73
2022/02/14 02:36:49;;;;;;;59.73;55.17;;;;;;;9.02;100.00;99269.84;2000010;71;32909;-75
2022/02/14 02:42:33;;;;;;;59.90;55.37;;;;;;;8.93;100.00;99270.34;1998122;71;33239;-73
2022/02/14 02:48:17;;;;;;;59.33;55.03;;;;;;;8.93;100.00;99265.62;1990768;71;32872;-74
2022/02/14 02:54:01;;;;;;;59.00;54.53;;;;;;;8.94;100.00;99276.92;2017688;71;33380;-74
2022/02/14 02:59:46;;;;;;;59.37;55.17;;;;;;;8.89;100.00;99294.24;2017540;71;32876;-73
2022/02/14 03:05:30;;;;;;;61.67;57.17;;;;;;;8.84;100.00;99309.02;1999938;70;33115;-74
2022/02/14 03:11:14;;;;;;;60.87;56.37;;;;;;;8.77;100.00;99316.91;2017598;71;32849;-73
2022/02/14 03:16:58;;;;;;;63.20;58.60;;;;;;;8.75;100.00;99327.48;1996142;71;32802;-73
2022/02/14 03:22:44;;;;;;;61.23;56.77;;;;;;;8.68;100.00;99331.25;2014259;71;32871;-73
2022/02/14 03:28:28;;;;;;;64.30;59.70;;;;;;;8.69;100.00;99335.64;2005460;71;33266;-73
2022/02/14 03:34:12;;;;;;;64.53;59.93;;;;;;;8.71;100.00;99347.80;2005251;71;33309;-73
2022/02/14 03:39:56;;;;;;;62.50;58.10;;;;;;;8.68;100.00;99370.80;2012219;71;32788;-74
2022/02/14 03:45:42;;;;;;;60.70;56.10;;;;;;;8.62;100.00;99373.43;2001480;71;33416;-73
2022/02/14 03:51:26;;;;;;;59.87;55.37;;;;;;;8.58;100.00;99377.95;2010449;71;33253;-73
2022/02/14 03:57:10;;;;;;;61.07;56.73;;;;;;;8.50;100.00;99377.84;1996109;71;32881;-74
2022/02/14 04:06:01;;;;;;;62.73;58.33;;;;;;;8.32;100.00;99393.97;2040336;69;32616;-73
2022/02/14 04:08:31;;;;;;;62.47;57.83;;;;;;;8.30;100.00;99399.00;1934501;73;26384;-73
2022/02/14 04:11:01;;;;;;;62.07;57.50;;;;;;;8.25;100.00;99397.12;1933769;73;26364;-74
2022/02/14 04:13:31;;;;;;;60.07;55.67;;;;;;;8.15;100.00;99407.80;2007332;70;26778;-74
2022/02/14 04:16:01;;;;;;;63.47;58.97;;;;;;;8.12;100.00;99411.18;2007739;70;26382;-74
2022/02/14 04:18:32;;;;;;;62.77;58.17;;;;;;;8.14;100.00;99411.68;2016210;71;26246;-73
2022/02/14 04:21:02;;;;;;;60.07;55.57;;;;;;;8.14;100.00;99421.36;2015343;70;26215;-73
2022/02/14 04:23:33;;;;;;;60.93;56.60;;;;;;;8.13;100.00;99421.09;2021612;70;26229;-73
2022/02/14 04:26:03;;;;;;;64.50;59.90;;;;;;;8.07;100.00;99415.97;2015950;70;26767;-73
2022/02/14 04:28:33;;;;;;;61.53;56.93;;;;;;;8.07;100.00;99427.03;2023563;70;26211;-73
2022/02/14 04:31:07;;;;;;;61.20;56.77;;;;;;;8.03;100.00;99424.06;2012144;70;26214;-73
2022/02/14 04:33:37;;;;;;;62.50;58.00;;;;;;;8.07;100.00;99429.80;2015441;70;26721;-72
2022/02/14 04:36:11;;;;;;;60.53;56.03;;;;;;;8.05;100.00;99441.15;2016233;71;26298;-72
2022/02/14 04:38:40;;;;;;;57.80;53.57;;;;;;;8.07;100.00;99443.63;2012106;70;26699;-74
2022/02/14 04:41:10;;;;;;;58.30;53.70;;;;;;;8.00;100.00;99449.52;2024853;70;26202;-73
2022/02/14 04:43:40;;;;;;;58.23;53.83;;;;;;;8.02;100.00;99451.44;2016795;70;26262;-72
2022/02/14 04:46:10;;;;;;;59.37;55.00;;;;;;;8.00;100.00;99461.17;2017388;70;26210;-72
2022/02/14 04:48:40;;;;;;;57.33;53.13;;;;;;;7.96;100.00;99466.46;2016868;70;26296;-73
2022/02/14 04:51:11;;;;;;;59.03;54.63;;;;;;;7.99;100.00;99470.02;2024639;70;26751;-73
2022/02/14 04:53:41;;;;;;;57.80;53.40;;;;;;;7.98;100.00;99473.91;2015532;70;26211;-72
2022/02/14 04:56:12;;;;;;;56.93;52.73;;;;;;;8.00;100.00;99477.17;2019635;70;26196;-72
2022/02/14 04:58:42;;;;;;;58.13;53.73;;;;;;;7.96;100.00;99475.34;2013272;70;26223;-74
2022/02/14 05:01:12;;;;;;;57.03;52.87;;;;;;;7.98;100.00;99481.38;1949285;70;931566;-74
2022/02/14 05:06:57;;;;;;;60.87;56.53;;;;;;;7.92;100.00;99495.01;2001446;71;33376;-74
2022/02/14 05:12:41;;;;;;;60.40;56.00;;;;;;;7.81;100.00;99503.21;2015936;71;32849;-71
2022/02/14 05:18:26;;;;;;;57.80;53.30;;;;;;;7.76;100.00;99498.58;2003995;71;33334;-72
2022/02/14 05:24:10;;;;;;;60.60;56.20;;;;;;;7.68;100.00;99500.64;2000271;71;33309;-73
2022/02/14 05:29:54;;;;;;;60.97;56.07;;;;;;;7.48;100.00;99520.28;2017892;71;32961;-74
2022/02/14 05:35:38;;;;;;;60.03;55.43;;;;;;;7.49;100.00;99526.05;1991129;71;32807;-73
2022/02/14 05:41:24;;;;;;;60.80;56.40;;;;;;;7.40;100.00;99531.44;2007178;71;33345;-73
2022/02/14 05:47:08;;;;;;;62.47;57.77;;;;;;;7.39;100.00;99545.54;2000199;71;32740;-72
2022/02/14 05:52:52;;;;;;;58.20;53.60;;;;;;;7.29;100.00;99554.77;2002114;71;33298;-72
2022/02/14 05:58:36;;;;;;;57.50;53.00;;;;;;;7.23;100.00;99559.52;2010607;71;32877;-73
2022/02/14 06:04:20;;;;;;;60.63;56.13;;;;;;;7.19;100.00;99554.33;1996734;71;32729;-74
2022/02/14 06:10:06;;;;;;;60.33;55.73;;;;;;;7.19;100.00;99572.83;1994822;71;32831;-73
2022/02/14 06:15:50;;;;;;;58.40;53.93;;;;;;;7.14;100.00;99579.81;1999781;71;33349;-74
2022/02/14 06:21:35;;;;;;;59.73;55.03;;;;;;;7.17;100.00;99598.00;1994562;71;32859;-72
2022/02/14 06:27:21;;;;;;;59.70;54.90;;;;;;;7.10;100.00;99609.92;2007332;71;32911;-73
2022/02/14 06:33:05;;;;;;;58.60;53.80;;;;;;;7.12;100.00;99611.03;1998393;71;33321;-74
2022/02/14 06:38:50;;;;;;;57.40;52.80;;;;;;;7.08;100.00;99613.55;2016149;71;32888;-72
2022/02/14 06:44:34;;;;;;;59.43;54.63;;;;;;;6.90;100.00;99618.98;1998340;71;32765;-73
2022/02/14 06:50:20;;;;;;;63.87;59.17;;;;;;;6.96;100.00;99628.88;1990568;71;33301;-74
2022/02/14 06:56:05;;;;;;;58.50;54.10;;;;;;;6.98;100.00;99637.11;2005800;71;32752;-75
2022/02/14 07:01:50;;;;;;;60.83;56.23;;;;;;;6.88;100.00;99642.75;1994739;71;33346;-73
2022/02/14 07:07:34;;;;;;;57.37;52.87;;;;;;;6.86;100.00;99651.86;1994745;71;32742;-73
2022/02/14 07:13:18;;;;;;;59.20;54.80;;;;;;;6.94;100.00;99660.06;2010668;71;32817;-73
2022/02/14 07:19:03;;;;;;;57.77;53.47;;;;;;;6.88;100.00;99674.49;2011103;71;32798;-74
2022/02/14 07:24:48;;;;;;;61.33;56.83;;;;;;;6.84;100.00;99683.91;2010844;71;33350;-72
2022/02/14 07:30:33;;;;;;;60.20;55.50;;;;;;;6.95;100.00;99690.70;2004198;70;32729;-72
2022/02/14 07:36:17;;;;;;;62.63;58.03;;;;;;;6.92;100.00;99703.16;2012494;71;32785;-73
2022/02/14 07:42:02;;;;;;;61.90;57.60;;;;;;;6.97;100.00;99711.41;2014433;71;33007;-72
2022/02/14 07:47:46;;;;;;;62.20;57.50;;;;;;;6.98;100.00;99726.00;2005790;70;32741;-72
2022/02/14 07:53:32;;;;;;;63.10;58.70;;;;;;;6.97;100.00;99733.48;1997237;70;32737;-73
2022/02/14 07:59:16;;;;;;;60.43;55.73;;;;;;;6.95;100.00;99744.53;2007705;71;32734;-72
2022/02/14 08:05:00;;;;;;;63.70;59.00;;;;;;;6.94;100.00;99751.16;2002121;71;32799;-75
2022/02/14 08:10:44;;;;;;;62.00;57.27;;;;;;;6.99;100.00;99764.92;2014259;71;32786;-72
2022/02/14 08:16:30;;;;;;;61.87;57.37;;;;;;;7.03;100.00;99764.06;1998125;71;33267;-72
2022/02/14 08:22:15;;;;;;;63.93;59.30;;;;;;;7.04;100.00;99770.41;2007350;71;32923;-74
2022/02/14 08:27:59;;;;;;;63.20;58.43;;;;;;;7.15;100.00;99772.80;2003504;71;33404;-75
2022/02/14 08:33:44;;;;;;;61.23;56.57;;;;;;;7.23;100.00;99785.18;1996587;71;32749;-74
2022/02/14 08:39:28;;;;;;;63.60;59.07;;;;;;;7.45;100.00;99786.89;2017870;71;32908;-72
2022/02/14 08:45:13;;;;;;;65.80;60.90;;;;;;;7.54;100.00;99796.75;2010766;71;32853;-73
2022/02/14 08:50:57;;;;;;;63.93;59.07;;;;;;;7.62;100.00;99806.62;1983689;71;33250;-72
2022/02/14 08:56:41;;;;;;;70.63;65.23;;;;;;;7.75;100.00;99812.02;2000152;71;32929;-74
2022/02/14 09:02:26;;;;;;;62.80;58.10;;;;;;;7.84;100.00;99817.18;2010671;71;33422;-72
2022/02/14 09:08:10;;;;;;;60.57;56.03;;;;;;;8.06;100.00;99823.02;2000273;71;32748;-72
2022/02/14 09:13:54;;;;;;;60.40;55.70;;;;;;;8.08;100.00;99817.21;2000316;70;33393;-72
2022/02/14 09:19:39;;;;;;;59.27;54.50;;;;;;;8.17;100.00;99832.05;2013196;71;32743;-71
2022/02/14 09:25:24;;;;;;;57.80;53.60;;;;;;;8.28;100.00;99824.44;1999795;71;32863;-72
2022/02/14 09:31:08;;;;;;;56.70;52.40;;;;;;;8.32;100.00;99830.50;2014748;71;33286;-75
2022/02/14 09:36:54;;;;;;;55.60;51.07;;;;;;;8.53;100.00;99837.42;2002169;71;32851;-74
2022/02/14 09:42:39;;;;;;;54.17;50.27;;;;;;;8.54;100.00;99842.41;2000337;71;32839;-72
2022/02/14 09:48:27;;;;;;;59.30;54.77;;;;;;;8.64;100.00;99846.44;2005296;71;32805;-72
2022/02/14 09:54:12;;;;;;;54.60;50.43;;;;;;;8.67;100.00;99841.69;2003297;71;32883;-75
2022/02/14 09:59:57;;;;;;;57.87;53.90;;;;;;;8.75;100.00;99842.40;2012525;71;32922;-74
2022/02/14 10:05:44;;;;;;;60.20;55.93;;;;;;;8.90;100.00;99852.45;2014447;71;33388;-74
2022/02/14 10:11:32;;;;;;;61.00;56.83;;;;;;;8.95;100.00;99850.97;2002340;71;32744;-73
2022/02/14 10:17:32;;;;;;;56.67;52.77;;;;;;;9.00;100.00;99855.05;1998492;71;33222;-71
2022/02/14 10:23:17;;;;;;;55.10;51.07;;;;;;;9.13;100.00;99862.06;1991008;71;32748;-72
2022/02/14 10:29:08;;;;;;;55.03;51.13;;;;;;;9.26;100.00;99856.88;1994269;71;32806;-74
2022/02/14 10:34:56;;;;;;;56.30;52.40;;;;;;;9.45;100.00;99879.87;2016202;71;32950;-73
2022/02/14 10:40:55;;;;;;;57.77;53.97;;;;;;;9.25;100.00;99881.55;2005870;71;32952;-72
2022/02/14 10:46:43;;;;;;;57.60;53.70;;;;;;;9.13;100.00;99888.38;2008943;71;32808;-73
2022/02/14 10:52:33;;;;;;;54.60;50.90;;;;;;;9.27;100.00;99902.87;2014644;71;33283;-72
2022/02/14 10:58:18;;;;;;;57.27;53.77;;;;;;;9.20;100.00;99907.98;1994376;71;32813;-72
2022/02/14 11:04:03;;;;;;;57.30;53.50;;;;;;;9.31;100.00;99917.78;2000184;71;32866;-76
2022/02/14 11:09:53;;;;;;;55.97;52.20;;;;;;;9.36;100.00;99926.84;2016359;71;32929;-73
2022/02/14 11:15:40;;;;;;;58.30;54.50;;;;;;;9.36;100.00;99937.10;2011346;71;33294;-72
2022/02/14 11:21:27;;;;;;;55.47;51.83;;;;;;;9.46;100.00;99940.53;1991009;71;33023;-75
2022/02/14 11:27:16;;;;;;;56.17;52.67;;;;;;;9.70;100.00;99938.24;2003759;71;33336;-75
2022/02/14 11:33:09;;;;;;;53.90;50.50;;;;;;;9.59;100.00;99935.62;2008936;71;32811;-72
2022/02/14 11:38:56;;;;;;;53.50;49.80;;;;;;;9.70;100.00;99943.23;2012706;71;32860;-75
2022/02/14 11:44:44;;;;;;;53.13;49.83;;;;;;;9.98;100.00;99931.66;2010481;71;32843;-73
2022/02/14 11:50:42;;;;;;;55.00;51.60;;;;;;;9.90;100.00;99933.74;2001709;71;32926;-72
2022/02/14 11:56:45;;;;;;;55.63;52.33;;;;;;;9.89;100.00;99932.91;2005599;71;32742;-72
2022/02/14 12:02:31;;;;;;;53.47;50.13;;;;;;;9.93;100.00;99933.13;1996606;71;33205;-73
2022/02/14 12:08:16;;;;;;;55.50;52.20;;;;;;;9.82;100.00;99930.28;2002200;71;33339;-72
2022/02/14 12:14:05;;;;;;;54.60;51.20;;;;;;;9.97;100.00;99925.28;2005035;71;32963;-75
2022/02/14 12:25:59;;;;;;;55.13;51.83;;;;;;;10.10;100.00;99947.26;1999840;71;32920;-72
2022/02/14 12:31:45;;;;;;;52.37;49.07;;;;;;;10.17;100.00;99948.30;1991212;71;33275;-72
2022/02/14 12:37:38;;;;;;;52.60;49.17;;;;;;;10.23;100.00;99951.23;1998396;71;32866;-72
2022/02/14 12:43:27;;;;;;;55.97;52.57;;;;;;;10.23;100.00;99947.89;2009073;71;32887;-72
2022/02/14 12:49:12;;;;;;;53.30;50.20;;;;;;;10.24;100.00;99957.05;2014424;71;32900;-73
2022/02/14 12:54:58;;;;;;;55.27;52.07;;;;;;;10.20;100.00;99969.88;2005644;71;32744;-73
2022/02/14 13:01:04;;;;;;;59.73;56.03;;;;;;;9.98;100.00;99972.71;2012845;71;33106;-75
2022/02/14 13:06:51;;;;;;;58.83;55.03;;;;;;;10.23;100.00;99977.03;2010457;71;32812;-72
2022/02/14 13:12:37;;;;;;;58.53;54.83;;;;;;;10.17;100.00;99980.21;2014543;71;32984;-74
2022/02/14 13:18:22;;;;;;;56.23;52.93;;;;;;;10.07;100.00;99982.55;1990950;71;32844;-74
2022/02/14 13:24:21;;;;;;;57.63;54.20;;;;;;;10.38;100.00;99986.49;2004508;71;32836;-75
2022/02/14 13:30:18;;;;;;;53.47;50.37;;;;;;;10.46;100.00;99984.39;2010844;71;32815;-74
2022/02/14 13:36:05;;;;;;;56.57;53.10;;;;;;;10.48;100.00;99991.05;2009004;71;33285;-75
2022/02/14 13:41:50;;;;;;;55.53;52.13;;;;;;;10.25;100.00;99994.78;1995014;71;32845;-73
2022/02/14 13:47:34;;;;;;;55.00;51.73;;;;;;;10.50;100.00;99991.55;2005789;70;32764;-72
2022/02/14 13:53:39;;;;;;;56.43;53.23;;;;;;;10.54;100.00;99989.80;1994284;71;32970;-72
2022/02/14 13:59:28;;;;;;;62.60;58.60;;;;;;;10.34;100.00;99999.89;1994605;71;32810;-73
2022/02/14 14:05:37;;;;;;;61.07;57.17;;;;;;;10.26;100.00;100015.30;2012767;71;33274;-73
2022/02/14 14:11:33;;;;;;;62.30;58.10;;;;;;;10.09;100.00;100023.88;2010928;71;33379;-73
2022/02/14 14:17:19;;;;;;;64.90;60.40;;;;;;;9.93;100.00;100032.43;2007620;71;32754;-75
2022/02/14 14:23:05;;;;;;;64.87;60.20;;;;;;;9.89;100.00;100041.09;2006981;71;33380;-72
2022/02/14 14:28:50;;;;;;;63.27;58.87;;;;;;;9.87;100.00;100050.85;1995174;71;32793;-77
2022/02/14 14:34:35;;;;;;;60.57;56.37;;;;;;;9.96;100.00;100041.56;2013459;71;32858;-75
2022/02/14 14:40:21;;;;;;;60.60;56.33;;;;;;;10.10;100.00;100053.28;1999638;71;32879;-73
2022/02/14 14:46:06;;;;;;;61.97;57.87;;;;;;;9.98;100.00;100046.78;2009298;71;32789;-73
2022/02/14 14:51:50;;;;;;;59.30;55.27;;;;;;;10.07;100.00;100063.02;1994797;71;32830;-74
2022/02/14 14:57:35;;;;;;;60.00;56.10;;;;;;;10.01;100.00;100067.02;1999496;71;32917;-75
2022/02/14 15:03:26;;;;;;;60.60;56.70;;;;;;;10.14;100.00;100075.94;1994406;70;32849;-75
2022/02/14 15:09:10;;;;;;;59.20;55.40;;;;;;;10.16;100.00;100089.55;2005704;71;32899;-72
2022/02/14 15:14:55;;;;;;;56.83;53.30;;;;;;;10.11;100.00;100102.08;2007721;70;32748;-73
2022/02/14 15:20:40;;;;;;;59.10;55.40;;;;;;;9.97;100.00;100102.83;1996735;71;32742;-75
2022/02/14 15:26:24;;;;;;;59.33;55.60;;;;;;;10.07;100.00;100112.96;1991165;70;33366;-72
2022/02/14 15:32:09;;;;;;;59.60;55.80;;;;;;;10.02;100.00;100115.25;1994857;71;32740;-75
2022/02/14 15:37:53;;;;;;;58.50;54.80;;;;;;;10.02;100.00;100129.12;2007604;71;32726;-76
2022/02/14 15:43:37;;;;;;;58.10;54.40;;;;;;;9.94;100.00;100129.79;2009143;71;32791;-74
2022/02/14 15:49:22;;;;;;;56.87;53.47;;;;;;;9.93;100.00;100141.17;2014417;71;33006;-75
2022/02/14 15:55:09;;;;;;;60.73;57.03;;;;;;;9.97;100.00;100145.83;1991024;71;33189;-73
2022/02/14 16:00:55;;;;;;;57.20;53.90;;;;;;;9.89;100.00;100163.14;2012668;71;32848;-75
2022/02/14 16:06:42;;;;;;;58.07;54.67;;;;;;;9.88;100.00;100171.19;2012603;71;32921;-71
2022/02/14 16:12:27;;;;;;;56.40;53.10;;;;;;;9.92;100.00;100181.98;2009456;71;32738;-73
2022/02/14 16:18:12;;;;;;;55.60;52.50;;;;;;;9.93;100.00;100185.00;2014194;71;32953;-73
2022/02/14 16:23:56;;;;;;;56.40;53.10;;;;;;;9.85;100.00;100196.76;2011280;71;33193;-72
2022/02/14 16:29:40;;;;;;;55.60;52.40;;;;;;;9.82;100.00;100214.00;2010654;71;32816;-72
2022/02/14 16:35:25;;;;;;;55.87;52.67;;;;;;;9.76;100.00;100215.17;2000033;71;32798;-75
2022/02/14 16:41:11;;;;;;;53.20;50.20;;;;;;;9.72;100.00;100236.30;2016071;71;32834;-75
2022/02/14 16:46:56;;;;;;;54.53;51.33;;;;;;;9.38;100.00;100284.05;2016057;71;32818;-76
2022/02/14 16:52:43;;;;;;;62.40;58.60;;;;;;;8.81;100.00;100294.50;2000420;71;33216;-74
2022/02/14 16:58:28;;;;;;;61.87;57.57;;;;;;;8.51;100.00;100309.36;2013200;71;32734;-72
2022/02/14 17:04:12;;;;;;;61.17;56.87;;;;;;;8.40;100.00;100325.16;1996530;71;32873;-74
2022/02/14 17:09:56;;;;;;;62.03;57.73;;;;;;;8.27;100.00;100330.44;2007681;71;32841;-73
2022/02/14 17:15:41;;;;;;;62.50;58.00;;;;;;;8.23;100.00;100335.72;2001990;71;32801;-74
2022/02/14 17:21:25;;;;;;;83.77;76.43;;;;;;;8.22;100.00;100336.27;2001962;71;32860;-75
2022/02/14 17:27:12;;;;;;;62.00;57.07;;;;;;;8.24;100.00;100351.22;2017514;71;32858;-76
2022/02/14 17:32:56;;;;;;;80.93;74.13;;;;;;;8.34;100.00;100363.67;1994720;71;32845;-74
2022/02/14 17:38:40;;;;;;;75.07;68.67;;;;;;;8.09;100.00;100370.05;1998361;71;32830;-72
2022/02/14 17:44:25;;;;;;;58.93;54.13;;;;;;;8.16;100.00;100385.00;1990983;71;32754;-74
2022/02/14 17:50:11;;;;;;;57.13;52.33;;;;;;;8.14;100.00;100401.86;2009058;71;33308;-74
2022/02/14 17:55:55;;;;;;;56.03;51.53;;;;;;;8.17;100.00;100415.12;2003984;71;32826;-72
2022/02/14 18:01:39;;;;;;;53.13;48.70;;;;;;;8.31;100.00;100420.11;2013257;71;33224;-74
2022/02/14 18:07:23;;;;;;;53.30;49.00;;;;;;;8.50;100.00;100444.70;2014621;71;33007;-74
2022/02/14 18:13:07;;;;;;;56.40;52.10;;;;;;;8.56;100.00;100467.91;1999864;71;32880;-74
2022/02/14 18:18:52;;;;;;;56.87;52.47;;;;;;;8.60;100.00;100473.75;2018259;71;33288;-73
2022/02/14 18:24:37;;;;;;;54.50;50.10;;;;;;;8.49;100.00;100477.63;2003768;71;32739;-75
2022/02/14 18:30:22;;;;;;;58.53;54.10;;;;;;;8.30;100.00;100486.27;1996523;71;32892;-72
2022/02/14 18:36:09;;;;;;;58.10;53.60;;;;;;;8.26;100.00;100501.73;2009141;71;33251;-72
2022/02/14 18:41:53;;;;;;;57.70;52.90;;;;;;;8.11;100.00;100515.02;1997650;71;32874;-72
2022/02/14 18:47:38;;;;;;;59.27;54.87;;;;;;;7.98;100.00;100526.08;2002064;71;32746;-74
2022/02/14 18:53:24;;;;;;;58.73;54.23;;;;;;;8.07;100.00;100541.02;1991112;71;32837;-72
2022/02/14 18:59:08;;;;;;;56.27;52.07;;;;;;;8.04;100.00;100544.89;2002082;71;32969;-74
2022/02/14 19:04:53;;;;;;;60.47;55.97;;;;;;;8.08;100.00;100559.28;2010898;71;33295;-74
2022/02/14 19:10:37;;;;;;;60.40;55.93;;;;;;;8.10;100.00;100575.03;1996299;71;32801;-74
2022/02/14 19:16:22;;;;;;;58.87;54.53;;;;;;;8.12;100.00;100588.60;2000296;71;32753;-73
2022/02/14 19:22:06;;;;;;;61.57;56.97;;;;;;;7.95;100.00;100593.02;2014483;70;33317;-72
2022/02/14 19:27:52;;;;;;;60.10;55.70;;;;;;;7.96;100.00;100607.09;2012705;71;32808;-74
2022/02/14 19:33:49;;;;;;;60.07;55.77;;;;;;;7.88;100.00;100620.08;2016246;70;33405;-74
2022/02/14 19:39:34;;;;;;;60.50;56.10;;;;;;;7.95;100.00;100636.42;2003622;71;33393;-75
2022/02/14 19:45:18;;;;;;;59.63;55.27;;;;;;;8.06;100.00;100645.01;1994771;71;32805;-71
2022/02/14 19:51:04;;;;;;;59.03;54.77;;;;;;;8.13;100.00;100663.55;2004942;71;32927;-71
2022/02/14 19:56:48;;;;;;;60.90;56.60;;;;;;;8.16;100.00;100665.78;2017963;71;32869;-74
2022/02/14 20:02:33;;;;;;;60.00;55.63;;;;;;;8.04;100.00;100672.13;1990464;71;33204;-72
2022/02/14 20:08:19;;;;;;;60.30;56.10;;;;;;;7.98;100.00;100674.59;2009013;71;33256;-72
2022/02/14 20:14:05;;;;;;;59.17;55.07;;;;;;;7.94;100.00;100696.44;2012978;71;34127;-72
2022/02/14 20:19:50;;;;;;;60.13;55.93;;;;;;;7.92;100.00;100704.70;1990978;71;32856;-74
2022/02/14 20:25:34;;;;;;;60.03;56.00;;;;;;;7.88;100.00;100716.02;2012715;71;32879;-74
2022/02/14 20:31:20;;;;;;;57.20;53.17;;;;;;;7.92;100.00;100724.89;2005561;71;32729;-74
2022/02/14 20:37:04;;;;;;;59.90;55.80;;;;;;;7.94;100.00;100732.94;2003634;71;33359;-72
2022/02/14 20:42:49;;;;;;;58.13;54.07;;;;;;;7.82;100.00;100753.91;2003505;71;32996;-74
2022/02/14 20:48:34;;;;;;;58.70;54.60;;;;;;;7.75;100.00;100759.66;2010687;71;32963;-74
2022/02/14 20:54:18;;;;;;;56.40;52.57;;;;;;;7.78;100.00;100777.13;2009247;71;32816;-73
2022/02/14 21:00:04;;;;;;;58.33;53.97;;;;;;;7.91;100.00;100787.41;1998468;71;33229;-73
2022/02/14 21:05:50;;;;;;;59.53;55.37;;;;;;;7.95;100.00;100793.52;1990547;71;32735;-71
2022/02/14 21:11:34;;;;;;;58.20;54.10;;;;;;;7.95;100.00;100806.52;1999944;71;32973;-75
2022/02/14 21:17:21;;;;;;;61.27;57.17;;;;;;;7.90;100.00;100817.54;2005414;71;32966;-72
2022/02/14 21:23:05;;;;;;;58.97;55.03;;;;;;;7.90;100.00;100812.84;2018180;71;33325;-72
2022/02/14 21:28:49;;;;;;;61.40;57.10;;;;;;;7.81;100.00;100826.89;2010799;71;33329;-71
2022/02/14 21:34:35;;;;;;;60.07;56.03;;;;;;;7.76;100.00;100833.77;2014504;71;33350;-70
2022/02/14 21:40:20;;;;;;;60.70;56.60;;;;;;;7.61;100.00;100829.54;2014410;71;33274;-74
2022/02/14 21:46:04;;;;;;;61.27;57.00;;;;;;;7.51;100.00;100848.80;2008737;71;32902;-73
2022/02/14 21:51:50;;;;;;;58.93;54.93;;;;;;;7.50;100.00;100865.93;1994733;71;32735;-73
2022/02/14 21:57:34;;;;;;;62.27;57.97;;;;;;;7.38;100.00;100882.41;1995065;71;34007;-72
2022/02/14 22:03:19;;;;;;;61.87;57.87;;;;;;;7.33;100.00;100890.10;2016287;71;33342;-74
2022/02/14 22:09:03;;;;;;;60.40;56.40;;;;;;;7.33;100.00;100900.61;2016115;71;32796;-73
2022/02/14 22:14:47;;;;;;;59.87;55.67;;;;;;;7.28;100.00;100908.84;2014572;71;33451;-73
2022/02/14 22:20:32;;;;;;;61.80;57.83;;;;;;;7.02;100.00;100910.23;2010876;71;33308;-74
2022/02/14 22:26:16;;;;;;;59.90;55.70;;;;;;;6.99;100.00;100924.56;2000187;71;32812;-74
2022/02/14 22:32:01;;;;;;;61.93;57.83;;;;;;;7.02;100.00;100911.61;2003968;71;33257;-72
2022/02/14 22:37:46;;;;;;;60.17;56.07;;;;;;;6.77;100.00;100927.36;2008678;71;32814;-72
2022/02/14 22:43:32;;;;;;;61.20;57.10;;;;;;;6.83;100.00;100938.77;1998552;70;32904;-74
2022/02/14 22:49:15;;;;;;;62.67;58.40;;;;;;;6.72;100.00;100928.13;2005224;71;32887;-72
2022/02/14 22:55:01;;;;;;;59.60;55.40;;;;;;;6.75;100.00;100947.50;2002209;71;33394;-74
2022/02/14 23:00:57;;;;;;;58.83;54.73;;;;;;;6.67;100.00;100947.42;2005893;71;33210;-72
2022/02/14 23:18:45;;;;;;;58.17;54.37;;;;;;;6.44;100.00;100966.13;2008754;71;32875;-72
2022/02/14 23:24:29;;;;;;;58.53;54.33;;;;;;;6.31;100.00;100977.83;2002140;71;32739;-71
2022/02/14 23:30:17;;;;;;;57.90;53.87;;;;;;;6.47;100.00;100984.92;2014348;71;33398;-71
2022/02/14 23:36:01;;;;;;;56.77;52.97;;;;;;;6.39;100.00;100988.42;2002070;71;32739;-73
2022/02/14 23:41:46;;;;;;;57.13;53.43;;;;;;;6.34;100.00;100985.59;2016145;71;32983;-71
2022/02/14 23:47:30;;;;;;;57.17;53.17;;;;;;;6.34;100.00;100988.34;2009555;71;33350;-71
2022/02/14 23:53:15;;;;;;;57.50;53.67;;;;;;;6.30;100.00;100994.08;2003849;71;32871;-75
2022/02/14 23:59:00;;;;;;;58.07;54.37;;;;;;;6.16;100.00;101003.78;2012685;71;32863;-71
